Time;durP1;ratioP1;P1;durP2;ratioP2;P2;SDS_P1;SDS_P2;PMS_P1;PMS_P2;Temp;Humidity;BMP_temperature;BMP_pressure;BME280_temperature;BME280_humidity;BME280_pressure;Samples;Min_cycle;Max_cycle;Signal;HPM_P1;HPM_P2
2022/04/19 00:00:42;;;;;;;2.33;2.05;;;5.70;91.50;;;;;;5076527;28;20036;-72
2022/04/19 00:03:09;;;;;;;2.38;2.17;;;5.60;91.90;;;;;;5068757;28;20036;-72
2022/04/19 00:05:36;;;;;;;3.42;2.05;;;5.60;92.40;;;;;;5076738;28;20553;-73
2022/04/19 00:08:05;;;;;;;3.08;2.50;;;5.60;92.10;;;;;;5073039;28;20064;-74
2022/04/19 00:10:32;;;;;;;3.67;2.38;;;5.70;91.90;;;;;;5077557;28;20432;-75
2022/04/19 00:13:00;;;;;;;3.10;2.20;;;5.80;91.90;;;;;;5058337;28;24187;-75
2022/04/19 00:15:28;;;;;;;7.35;2.80;;;5.70;91.80;;;;;;5073729;28;20047;-75
2022/04/19 00:17:58;;;;;;;4.40;2.58;;;5.80;91.40;;;;;;5073894;28;20071;-75
2022/04/19 00:20:24;;;;;;;4.40;2.67;;;5.80;91.10;;;;;;5075778;28;20723;-75
2022/04/19 00:22:51;;;;;;;7.47;3.20;;;5.80;91.30;;;;;;5071631;28;20131;-75
2022/04/19 00:25:18;;;;;;;3.60;2.65;;;5.80;91.30;;;;;;5076164;28;20443;-75
2022/04/19 00:27:44;;;;;;;4.10;3.33;;;5.80;91.50;;;;;;5078031;28;20040;-75
2022/04/19 00:30:10;;;;;;;4.00;3.15;;;5.70;92.10;;;;;;5079461;28;20040;-75
2022/04/19 00:32:36;;;;;;;4.68;3.13;;;5.80;91.70;;;;;;5071628;28;20397;-75
2022/04/19 00:35:03;;;;;;;3.03;2.60;;;5.80;91.70;;;;;;5076792;28;20125;-75
2022/04/19 00:37:29;;;;;;;3.08;1.90;;;5.80;91.80;;;;;;5078437;28;20122;-76
2022/04/19 00:39:58;;;;;;;7.45;5.03;;;5.60;92.00;;;;;;5072252;28;20043;-75
2022/04/19 00:42:27;;;;;;;5.68;4.10;;;5.40;92.90;;;;;;5074445;28;20106;-75
2022/04/19 00:44:54;;;;;;;4.65;3.38;;;5.50;92.70;;;;;;5080109;28;20032;-75
2022/04/19 00:47:19;;;;;;;3.15;2.80;;;5.50;92.70;;;;;;5063523;28;20588;-75
2022/04/19 00:49:47;;;;;;;2.97;2.53;;;5.40;92.70;;;;;;5078196;28;20036;-75
2022/04/19 00:52:13;;;;;;;5.18;3.67;;;5.50;93.30;;;;;;5076517;28;20615;-75
2022/04/19 00:54:40;;;;;;;4.85;4.35;;;5.50;92.80;;;;;;5078335;28;20046;-75
2022/04/19 00:57:06;;;;;;;5.55;3.72;;;5.50;92.80;;;;;;5070256;28;20028;-75
2022/04/19 00:59:33;;;;;;;4.07;3.22;;;5.60;93.40;;;;;;5079219;28;20044;-75
2022/04/19 01:01:59;;;;;;;4.10;3.50;;;5.60;92.70;;;;;;5073123;28;20028;-75
2022/04/19 01:04:25;;;;;;;4.40;3.40;;;5.60;93.20;;;;;;5076907;28;20048;-75
2022/04/19 01:06:51;;;;;;;4.28;3.15;;;5.60;92.90;;;;;;5078246;28;20413;-76
2022/04/19 01:09:18;;;;;;;4.13;2.97;;;5.60;93.00;;;;;;5071033;28;20043;-75
2022/04/19 01:14:28;;;;;;;4.82;3.85;;;5.60;92.80;;;;;;5075623;28;20067;-75
2022/04/19 01:16:55;;;;;;;7.47;4.88;;;5.50;93.20;;;;;;5070424;28;20052;-75
2022/04/19 01:19:21;;;;;;;6.28;4.07;;;5.40;93.20;;;;;;5072177;28;20565;-75
2022/04/19 01:21:54;;;;;;;4.28;3.35;;;5.50;93.20;;;;;;5082844;28;20040;-77
2022/04/19 01:24:21;;;;;;;5.32;4.40;;;5.50;92.90;;;;;;5082315;28;20036;-77
2022/04/19 01:26:48;;;;;;;7.22;5.72;;;5.50;92.90;;;;;;5079323;28;20067;-78
2022/04/19 01:29:15;;;;;;;6.13;4.20;;;5.40;92.80;;;;;;5076712;28;20043;-77
2022/04/19 01:31:41;;;;;;;4.57;3.58;;;5.50;92.90;;;;;;5072617;28;20044;-78
2022/04/19 01:34:07;;;;;;;6.30;4.15;;;5.50;92.90;;;;;;5079310;28;20048;-78
2022/04/19 01:36:37;;;;;;;3.47;2.67;;;5.50;92.80;;;;;;5080968;28;20053;-78
2022/04/19 01:39:07;;;;;;;2.65;2.45;;;5.40;92.90;;;;;;5082002;28;20059;-78
2022/04/19 01:41:33;;;;;;;3.42;2.92;;;5.30;93.60;;;;;;5077686;28;20551;-75
2022/04/19 01:43:59;;;;;;;6.10;3.95;;;5.20;93.50;;;;;;5073954;28;20055;-75
2022/04/19 01:46:31;;;;;;;6.47;4.43;;;5.10;93.50;;;;;;5079601;28;20398;-75
2022/04/19 01:48:58;;;;;;;5.47;4.68;;;5.20;93.50;;;;;;5078011;28;20039;-75
2022/04/19 01:51:24;;;;;;;3.00;2.58;;;5.20;93.20;;;;;;5074610;28;20035;-74
2022/04/19 01:53:51;;;;;;;3.65;2.75;;;5.10;93.20;;;;;;5084421;28;20142;-74
2022/04/19 01:56:17;;;;;;;4.30;3.00;;;5.00;93.30;;;;;;5073570;28;20043;-75
2022/04/19 01:58:43;;;;;;;3.95;3.10;;;5.00;93.80;;;;;;5080651;28;20044;-75
2022/04/19 02:01:09;;;;;;;3.33;2.67;;;5.00;93.70;;;;;;5078607;28;20122;-75
2022/04/19 02:03:35;;;;;;;3.65;2.85;;;5.10;93.20;;;;;;5069747;28;20469;-74
2022/04/19 02:06:01;;;;;;;2.88;2.22;;;5.20;93.60;;;;;;5078401;28;20028;-74
2022/04/19 02:08:29;;;;;;;2.33;2.05;;;5.10;93.20;;;;;;5069599;28;20389;-75
2022/04/19 02:10:54;;;;;;;2.95;2.20;;;4.90;93.40;;;;;;5066257;28;20890;-74
2022/04/19 02:13:20;;;;;;;2.90;2.33;;;4.60;93.80;;;;;;5072220;28;20536;-74
2022/04/19 02:15:46;;;;;;;4.78;3.10;;;4.60;94.30;;;;;;5075089;28;20032;-75
2022/04/19 02:18:12;;;;;;;2.80;2.13;;;4.70;94.10;;;;;;5075497;28;20143;-74
2022/04/19 02:20:38;;;;;;;2.40;2.03;;;4.90;94.00;;;;;;5074112;28;20389;-74
2022/04/19 02:23:05;;;;;;;2.67;2.35;;;4.90;94.20;;;;;;5079032;28;20028;-75
2022/04/19 02:25:31;;;;;;;3.70;2.70;;;4.90;94.10;;;;;;5078196;28;20025;-74
2022/04/19 02:27:57;;;;;;;4.78;3.05;;;4.80;94.40;;;;;;5079766;28;20056;-74
2022/04/19 02:30:22;;;;;;;5.10;3.63;;;4.90;94.60;;;;;;5077681;28;20075;-74
2022/04/19 02:32:50;;;;;;;2.80;2.40;;;4.90;94.30;;;;;;5073567;28;20044;-74
2022/04/19 02:35:18;;;;;;;2.63;2.40;;;5.00;94.60;;;;;;5079741;28;20040;-74
2022/04/19 02:37:56;;;;;;;3.17;2.58;;;5.00;94.60;;;;;;5077120;28;20028;-74
2022/04/19 02:40:22;;;;;;;3.85;2.92;;;5.00;94.40;;;;;;5073792;28;20044;-74
2022/04/19 02:42:50;;;;;;;3.53;3.03;;;4.90;94.40;;;;;;5075848;28;20117;-74
2022/04/19 02:45:16;;;;;;;5.53;3.28;;;4.90;94.70;;;;;;5076379;28;20035;-74
2022/04/19 02:47:42;;;;;;;5.50;3.15;;;4.80;94.40;;;;;;5069138;28;20122;-74
2022/04/19 02:50:08;;;;;;;5.97;3.17;;;4.80;95.00;;;;;;5074681;28;20056;-74
2022/04/19 02:52:34;;;;;;;4.22;3.25;;;4.80;94.90;;;;;;5056518;28;20051;-74
2022/04/19 02:55:00;;;;;;;4.75;3.40;;;4.90;94.80;;;;;;5070078;28;20040;-74
2022/04/19 02:57:26;;;;;;;5.43;3.33;;;4.90;94.40;;;;;;5072371;28;20036;-75
2022/04/19 02:59:53;;;;;;;4.93;3.60;;;4.80;94.70;;;;;;5066334;28;20123;-74
2022/04/19 03:02:19;;;;;;;5.88;3.35;;;4.60;94.90;;;;;;5070162;28;20036;-74
2022/04/19 03:04:45;;;;;;;3.47;3.13;;;4.60;95.30;;;;;;5074971;28;20036;-75
2022/04/19 03:07:14;;;;;;;3.60;3.30;;;4.70;95.30;;;;;;5071232;28;20036;-75
2022/04/19 03:09:41;;;;;;;4.75;3.50;;;4.80;95.10;;;;;;5079386;28;20071;-74
2022/04/19 03:12:10;;;;;;;4.95;3.33;;;4.80;95.00;;;;;;5076840;28;20044;-75
2022/04/19 03:14:36;;;;;;;4.78;3.50;;;4.80;95.10;;;;;;5074549;28;20464;-74
2022/04/19 03:17:02;;;;;;;3.58;3.03;;;4.80;94.80;;;;;;5074136;28;20059;-75
2022/04/19 03:19:27;;;;;;;4.90;3.10;;;4.80;94.60;;;;;;5065984;28;20091;-74
2022/04/19 03:21:53;;;;;;;4.50;3.45;;;4.90;95.10;;;;;;5080218;28;20059;-74
2022/04/19 03:29:47;;;;;;;3.97;3.05;;;5.30;93.80;;;;;;5073944;28;20078;-75
2022/04/19 03:32:13;;;;;;;6.35;3.05;;;5.40;93.70;;;;;;5071406;28;20510;-75
2022/04/19 03:34:39;;;;;;;4.90;2.63;;;5.40;93.40;;;;;;5083985;28;20040;-74
2022/04/19 03:37:05;;;;;;;4.68;3.13;;;5.50;93.20;;;;;;5080060;28;20036;-75
2022/04/19 03:39:31;;;;;;;3.70;2.45;;;5.50;92.90;;;;;;5081532;28;20098;-74
2022/04/19 03:41:58;;;;;;;3.50;2.67;;;5.50;93.10;;;;;;5077584;28;20781;-74
2022/04/19 03:44:25;;;;;;;3.53;3.10;;;5.30;93.20;;;;;;5073789;28;20036;-74
2022/04/19 03:47:09;;;;;;;4.03;2.92;;;5.30;93.70;;;;;;5067957;28;20438;-75
2022/04/19 03:49:41;;;;;;;3.83;2.90;;;5.20;93.90;;;;;;5075771;28;20047;-75
2022/04/19 03:52:07;;;;;;;3.58;2.83;;;5.20;94.30;;;;;;5072508;28;20020;-75
2022/04/19 03:54:37;;;;;;;5.28;2.97;;;5.20;93.90;;;;;;5078177;28;20123;-74
2022/04/19 03:57:04;;;;;;;4.32;3.20;;;5.40;93.50;;;;;;5074451;28;20368;-75
2022/04/19 03:59:34;;;;;;;4.70;3.53;;;5.40;93.20;;;;;;5075101;28;20048;-74
2022/04/19 04:01:59;;;;;;;6.32;3.75;;;5.40;93.30;;;;;;5068525;28;20118;-74
2022/04/19 04:04:30;;;;;;;5.07;3.13;;;5.40;93.70;;;;;;5076247;28;21386;-74
2022/04/19 04:06:57;;;;;;;6.68;3.80;;;5.30;94.20;;;;;;5077597;28;20487;-74
2022/04/19 04:09:24;;;;;;;4.13;2.67;;;5.10;94.20;;;;;;5076185;28;20086;-74
2022/04/19 04:11:49;;;;;;;4.13;2.85;;;5.10;94.40;;;;;;5052062;28;20129;-74
2022/04/19 04:14:15;;;;;;;3.45;2.85;;;5.00;94.80;;;;;;5051717;28;20599;-74
2022/04/19 04:16:41;;;;;;;7.40;2.95;;;5.00;94.90;;;;;;5058439;28;20530;-74
2022/04/19 04:19:06;;;;;;;5.07;4.03;;;5.00;95.10;;;;;;5053255;28;20048;-74
2022/04/19 04:21:32;;;;;;;6.38;5.60;;;4.90;95.10;;;;;;5048312;28;20105;-75
2022/04/19 04:23:58;;;;;;;8.68;3.03;;;4.80;95.00;;;;;;5056097;28;20036;-75
2022/04/19 04:26:23;;;;;;;4.80;3.13;;;4.80;95.20;;;;;;5055816;28;20048;-74
2022/04/19 04:28:49;;;;;;;4.20;3.03;;;4.70;95.70;;;;;;5057485;28;20045;-75
2022/04/19 04:31:14;;;;;;;5.05;3.05;;;4.60;95.90;;;;;;5056492;28;20036;-75
2022/04/19 04:33:40;;;;;;;4.28;3.08;;;4.60;96.00;;;;;;5060007;28;20036;-75
2022/04/19 04:36:06;;;;;;;3.00;2.70;;;4.60;95.70;;;;;;5057160;28;20037;-74
2022/04/19 04:38:31;;;;;;;4.20;2.70;;;4.70;96.10;;;;;;5056074;28;20421;-73
2022/04/19 04:40:57;;;;;;;3.88;2.83;;;4.70;95.80;;;;;;5057245;28;20045;-72
2022/04/19 04:43:23;;;;;;;3.38;2.90;;;4.80;95.80;;;;;;5058592;28;20056;-73
2022/04/19 04:49:35;;;;;;;3.60;2.85;;;4.90;96.00;;;;;;5055696;28;20511;-73
2022/04/19 04:51:18;;;;;;;15.68;3.58;;;4.90;96.50;;;;;;5061245;28;24653;-72
2022/04/19 04:53:43;;;;;;;3.70;3.30;;;4.90;96.60;;;;;;5059479;28;20447;-72
2022/04/19 04:56:09;;;;;;;4.28;3.53;;;4.90;96.50;;;;;;5053333;28;20037;-72
2022/04/19 04:58:35;;;;;;;6.03;3.15;;;5.00;96.20;;;;;;5051447;28;20533;-73
2022/04/19 05:01:01;;;;;;;8.38;3.55;;;4.90;96.20;;;;;;5049716;28;20044;-72
2022/04/19 05:03:26;;;;;;;4.57;3.72;;;4.80;96.20;;;;;;5058162;28;20038;-72
2022/04/19 05:05:52;;;;;;;5.97;3.88;;;4.80;96.70;;;;;;5055263;28;20113;-73
2022/04/19 05:08:18;;;;;;;7.00;4.90;;;4.90;96.80;;;;;;5052176;28;20105;-72
2022/04/19 05:10:44;;;;;;;8.60;4.30;;;4.80;97.00;;;;;;5057129;28;20049;-73
2022/04/19 05:13:09;;;;;;;5.68;3.75;;;4.70;96.90;;;;;;5060915;28;20098;-72
2022/04/19 05:15:35;;;;;;;5.60;3.50;;;4.80;97.10;;;;;;5055741;28;20024;-72
2022/04/19 05:18:01;;;;;;;6.10;3.80;;;5.00;97.30;;;;;;5053322;28;20126;-72
2022/04/19 05:20:26;;;;;;;6.57;3.85;;;5.20;96.80;;;;;;5059500;28;20033;-73
2022/04/19 05:22:52;;;;;;;8.07;3.80;;;5.40;96.60;;;;;;5056079;28;20242;-72
2022/04/19 05:25:18;;;;;;;3.75;3.33;;;5.50;95.80;;;;;;5037940;28;20561;-72
2022/04/19 05:27:43;;;;;;;5.45;3.35;;;5.60;95.60;;;;;;5057312;28;20056;-73
2022/04/19 05:30:09;;;;;;;7.75;4.15;;;5.70;95.80;;;;;;5056011;28;20041;-72
2022/04/19 05:32:35;;;;;;;6.32;3.75;;;5.90;95.80;;;;;;5055892;28;20037;-73
2022/04/19 05:35:01;;;;;;;5.82;3.58;;;6.00;95.70;;;;;;5052909;28;20052;-72
2022/04/19 05:37:27;;;;;;;11.13;3.80;;;6.00;95.30;;;;;;5055984;28;20041;-72
2022/04/19 05:39:52;;;;;;;4.05;3.17;;;6.10;95.00;;;;;;5060942;28;20048;-72
2022/04/19 05:42:18;;;;;;;5.18;3.33;;;6.20;94.80;;;;;;5055204;28;20247;-72
2022/04/19 05:44:43;;;;;;;4.55;3.35;;;6.20;94.90;;;;;;5054896;28;20129;-73
2022/04/19 05:47:09;;;;;;;3.50;2.47;;;6.30;94.90;;;;;;5061912;28;20205;-72
2022/04/19 05:49:35;;;;;;;4.63;3.10;;;6.50;95.30;;;;;;5059029;28;20037;-72
2022/04/19 05:52:02;;;;;;;4.72;3.08;;;6.60;94.50;;;;;;5057905;28;20046;-73
2022/04/19 05:54:28;;;;;;;3.80;2.67;;;6.70;94.20;;;;;;5049174;28;20152;-73
2022/04/19 05:56:53;;;;;;;3.83;2.60;;;6.80;94.20;;;;;;5053408;28;20040;-73
2022/04/19 05:59:19;;;;;;;4.15;2.30;;;6.90;93.10;;;;;;5060826;28;20064;-73
2022/04/19 06:07:13;;;;;;;5.45;2.40;;;7.30;93.70;;;;;;5064617;28;20074;-72
2022/04/19 06:09:38;;;;;;;4.25;2.63;;;7.30;93.50;;;;;;5062929;28;20119;-71
2022/04/19 06:12:05;;;;;;;3.92;3.10;;;7.40;94.30;;;;;;5077583;28;20059;-72
2022/04/19 06:14:30;;;;;;;4.32;2.60;;;7.60;93.60;;;;;;5078273;28;20162;-71
2022/04/19 06:16:56;;;;;;;3.00;2.13;;;7.70;92.70;;;;;;5079334;28;20121;-71
2022/04/19 06:19:22;;;;;;;3.42;2.10;;;7.80;91.00;;;;;;5081475;28;20059;-72
2022/04/19 06:21:48;;;;;;;3.42;2.42;;;7.90;90.90;;;;;;5079144;28;20032;-73
2022/04/19 06:24:14;;;;;;;2.53;2.17;;;8.00;90.60;;;;;;5078814;28;20044;-72
2022/04/19 06:26:39;;;;;;;2.15;1.80;;;8.10;90.90;;;;;;5074955;28;20084;-72
2022/04/19 06:29:06;;;;;;;3.65;2.25;;;8.20;88.20;;;;;;5058225;28;20044;-71
2022/04/19 06:31:32;;;;;;;2.55;2.28;;;8.20;87.20;;;;;;5078830;28;20043;-72
2022/04/19 06:33:58;;;;;;;3.08;2.38;;;8.30;89.30;;;;;;5075134;28;20036;-71
2022/04/19 06:36:23;;;;;;;4.57;2.60;;;8.30;86.60;;;;;;5080642;28;20504;-71
2022/04/19 06:38:49;;;;;;;5.45;2.60;;;8.30;88.20;;;;;;5079585;28;20071;-71
2022/04/19 06:41:15;;;;;;;2.80;2.10;;;8.30;86.80;;;;;;5061895;28;20071;-72
2022/04/19 06:43:40;;;;;;;3.33;2.17;;;8.40;87.50;;;;;;5068075;28;20123;-71
2022/04/19 06:46:08;;;;;;;4.38;2.40;;;8.50;86.70;;;;;;5075927;28;20783;-67
2022/04/19 06:48:34;;;;;;;6.15;2.40;;;8.70;86.20;;;;;;5072678;28;20043;-72
2022/04/19 06:51:04;;;;;;;4.60;2.30;;;8.60;87.70;;;;;;5078942;28;20583;-72
2022/04/19 06:53:30;;;;;;;2.78;2.10;;;8.60;86.70;;;;;;5074978;28;20039;-73
2022/04/19 06:55:58;;;;;;;2.95;2.42;;;8.60;85.40;;;;;;5059016;28;20528;-73
2022/04/19 06:58:24;;;;;;;4.35;2.63;;;8.70;85.80;;;;;;5080872;28;20074;-72
2022/04/19 07:00:50;;;;;;;2.90;2.40;;;8.60;87.10;;;;;;5076844;28;20048;-71
2022/04/19 07:03:16;;;;;;;3.17;2.42;;;8.60;85.20;;;;;;5073039;28;20489;-72
2022/04/19 07:05:42;;;;;;;2.72;2.28;;;8.60;85.00;;;;;;5069748;28;20121;-71
2022/04/19 07:08:07;;;;;;;4.80;2.97;;;8.60;85.40;;;;;;5079915;28;20135;-72
2022/04/19 07:10:36;;;;;;;2.90;2.33;;;8.70;85.70;;;;;;5068841;28;20083;-71
2022/04/19 07:13:03;;;;;;;3.63;2.78;;;8.80;86.80;;;;;;5060428;28;20048;-71
2022/04/19 07:15:29;;;;;;;4.43;2.72;;;8.90;84.60;;;;;;5052039;28;20041;-70
2022/04/19 07:17:54;;;;;;;3.00;2.65;;;9.00;84.00;;;;;;5058756;28;20044;-71
2022/04/19 07:28:36;;;;;;;3.58;2.72;;;9.40;81.00;;;;;;5049286;28;20091;-71
2022/04/19 07:31:05;;;;;;;3.95;2.72;;;9.40;80.00;;;;;;5047656;28;20052;-70
2022/04/19 07:33:37;;;;;;;5.22;4.30;;;9.30;78.00;;;;;;5059179;28;20037;-70
2022/04/19 07:36:04;;;;;;;3.40;3.10;;;9.30;77.50;;;;;;5054528;28;20036;-70
2022/04/19 07:38:30;;;;;;;5.95;4.35;;;9.20;76.40;;;;;;5053988;28;20040;-71
2022/04/19 07:40:55;;;;;;;5.93;2.65;;;9.20;76.10;;;;;;5055499;28;20021;-71
2022/04/19 07:43:21;;;;;;;7.40;6.63;;;9.10;76.30;;;;;;5056648;28;20048;-71
2022/04/19 07:45:47;;;;;;;3.75;2.90;;;9.10;76.50;;;;;;5059920;28;20552;-71
2022/04/19 07:48:12;;;;;;;6.32;3.15;;;9.20;78.30;;;;;;5057659;28;20685;-72
2022/04/19 07:50:39;;;;;;;3.70;2.95;;;9.30;76.90;;;;;;5065959;28;20043;-72
2022/04/19 07:53:05;;;;;;;7.10;3.85;;;9.40;77.10;;;;;;5065799;28;20072;-71
2022/04/19 07:55:31;;;;;;;6.50;3.65;;;9.50;74.80;;;;;;5054581;28;20037;-71
2022/04/19 07:57:57;;;;;;;6.00;3.58;;;9.50;75.60;;;;;;5062316;28;20052;-71
2022/04/19 08:00:27;;;;;;;4.13;2.65;;;9.50;77.00;;;;;;5056354;28;20041;-71
2022/04/19 08:02:54;;;;;;;5.30;3.15;;;9.60;75.40;;;;;;5056475;28;20045;-73
2022/04/19 08:05:20;;;;;;;3.67;3.20;;;9.70;76.80;;;;;;5058234;28;20116;-72
2022/04/19 08:07:48;;;;;;;3.33;2.72;;;9.70;73.10;;;;;;5054581;28;20055;-72
2022/04/19 08:10:13;;;;;;;3.65;3.33;;;9.50;73.60;;;;;;5061753;28;20069;-72
2022/04/19 08:12:39;;;;;;;10.90;3.45;;;9.50;74.40;;;;;;5069119;28;20039;-73
2022/04/19 08:15:05;;;;;;;6.35;5.75;;;9.60;74.50;;;;;;5071041;28;20056;-73
2022/04/19 08:17:34;;;;;;;6.47;3.47;;;9.80;75.40;;;;;;5075644;28;20036;-72
2022/04/19 08:20:01;;;;;;;4.13;3.50;;;10.00;74.80;;;;;;5075968;28;20048;-74
2022/04/19 08:22:27;;;;;;;4.85;3.50;;;10.10;72.50;;;;;;5072482;28;20030;-74
2022/04/19 08:24:53;;;;;;;4.85;3.58;;;10.00;71.80;;;;;;5078801;28;20036;-72
2022/04/19 08:27:19;;;;;;;5.10;2.75;;;9.90;71.80;;;;;;5079673;28;20044;-72
2022/04/19 08:29:45;;;;;;;13.77;7.30;;;9.90;73.10;;;;;;5072320;28;20473;-71
2022/04/19 08:32:12;;;;;;;5.38;4.22;;;9.90;70.90;;;;;;5074698;28;20171;-72
2022/04/19 08:34:38;;;;;;;5.95;3.45;;;9.90;72.40;;;;;;5073171;28;20043;-74
2022/04/19 08:37:05;;;;;;;3.47;3.05;;;10.00;73.10;;;;;;5072341;28;20040;-71
2022/04/19 08:39:33;;;;;;;5.15;3.08;;;9.90;70.40;;;;;;5070128;28;20045;-73
2022/04/19 08:41:59;;;;;;;3.38;3.08;;;9.90;70.60;;;;;;5071433;28;20036;-74
2022/04/19 08:44:25;;;;;;;5.53;3.00;;;9.90;70.30;;;;;;5075670;28;20533;-72
2022/04/19 08:46:53;;;;;;;5.03;4.03;;;9.90;70.40;;;;;;5076744;28;20287;-73
2022/04/19 08:49:20;;;;;;;8.02;4.13;;;10.00;71.50;;;;;;5071596;28;20036;-73
2022/04/19 08:51:45;;;;;;;5.32;3.47;;;10.10;72.30;;;;;;5068949;28;20033;-73
2022/04/19 08:59:41;;;;;;;3.30;2.70;;;10.40;69.40;;;;;;5074030;28;20067;-73
2022/04/19 09:02:17;;;;;;;3.42;2.85;;;10.40;69.10;;;;;;5068112;28;20043;-74
2022/04/19 09:04:43;;;;;;;3.33;2.70;;;10.40;70.20;;;;;;5073911;28;20079;-74
2022/04/19 09:07:09;;;;;;;3.40;3.10;;;10.40;69.20;;;;;;5071961;28;20095;-72
2022/04/19 09:09:36;;;;;;;4.00;2.92;;;10.40;67.90;;;;;;5071562;28;20074;-73
2022/04/19 09:12:11;;;;;;;5.80;3.00;;;10.20;68.50;;;;;;5073331;28;20168;-72
2022/04/19 09:15:00;;;;;;;4.15;3.03;;;10.30;69.00;;;;;;5079643;28;20032;-73
2022/04/19 09:17:38;;;;;;;7.88;3.60;;;10.60;72.00;;;;;;5060857;28;20032;-74
2022/04/19 09:20:19;;;;;;;3.45;2.72;;;10.70;71.20;;;;;;5078095;28;20052;-73
2022/04/19 09:22:48;;;;;;;5.88;2.70;;;10.80;66.10;;;;;;5069776;28;20334;-73
2022/04/19 09:25:25;;;;;;;4.75;2.83;;;10.70;66.50;;;;;;5069822;28;20067;-74
2022/04/19 09:27:51;;;;;;;3.55;2.72;;;10.70;67.50;;;;;;5071769;28;20054;-74
2022/04/19 09:30:32;;;;;;;5.82;3.00;;;10.70;67.40;;;;;;5075398;28;20120;-74
2022/04/19 09:33:11;;;;;;;6.65;2.63;;;10.60;67.30;;;;;;5080171;28;20059;-73
2022/04/19 09:35:44;;;;;;;3.35;2.85;;;10.60;66.70;;;;;;5074983;28;20036;-75
2022/04/19 09:38:12;;;;;;;4.30;2.70;;;10.70;67.70;;;;;;5072010;28;20070;-73
2022/04/19 09:40:48;;;;;;;5.20;2.80;;;10.90;67.50;;;;;;5071056;28;20052;-76
2022/04/19 09:43:21;;;;;;;8.23;3.10;;;11.00;65.30;;;;;;5065283;28;20035;-76
2022/04/19 09:45:58;;;;;;;3.35;3.05;;;11.10;64.70;;;;;;5075766;28;20028;-74
2022/04/19 09:48:34;;;;;;;3.28;2.75;;;11.10;67.50;;;;;;5077072;28;20036;-75
2022/04/19 09:51:07;;;;;;;2.95;2.58;;;11.30;66.30;;;;;;5076735;28;20039;-75
2022/04/19 09:53:41;;;;;;;3.60;2.30;;;11.30;64.40;;;;;;5080770;28;20036;-74
2022/04/19 09:56:09;;;;;;;4.10;2.90;;;11.10;65.40;;;;;;5075088;28;20060;-75
2022/04/19 09:58:37;;;;;;;3.10;2.80;;;11.20;66.40;;;;;;5079323;28;20039;-75
2022/04/19 10:01:04;;;;;;;2.88;2.40;;;11.10;65.20;;;;;;5082432;28;20029;-75
2022/04/19 10:09:04;;;;;;;3.78;2.78;;;10.80;66.50;;;;;;5081183;28;20661;-75
2022/04/19 10:11:31;;;;;;;4.53;3.50;;;10.80;65.40;;;;;;5076523;28;20603;-76
2022/04/19 10:13:57;;;;;;;2.92;2.55;;;10.80;65.20;;;;;;5080613;28;20052;-76
2022/04/19 10:16:25;;;;;;;4.20;2.90;;;10.80;66.00;;;;;;5078955;28;20032;-77
2022/04/19 10:18:50;;;;;;;3.78;3.22;;;10.90;66.00;;;;;;5073226;28;20111;-76
2022/04/19 10:21:23;;;;;;;4.13;2.88;;;11.00;64.40;;;;;;5078043;28;20089;-77
2022/04/19 10:23:49;;;;;;;6.38;3.00;;;11.00;65.80;;;;;;5083582;28;20675;-77
2022/04/19 10:26:23;;;;;;;5.95;2.55;;;11.00;65.10;;;;;;5080717;28;20064;-76
2022/04/19 10:28:58;;;;;;;4.57;2.70;;;11.10;65.40;;;;;;5069707;28;20086;-76
2022/04/19 10:31:35;;;;;;;16.13;10.52;;;11.30;63.40;;;;;;5082543;28;20090;-74
2022/04/19 10:34:02;;;;;;;3.20;2.35;;;11.30;62.90;;;;;;5071810;28;20457;-76
2022/04/19 10:36:34;;;;;;;8.45;5.03;;;11.40;63.20;;;;;;5053610;28;20853;-75
2022/04/19 10:39:15;;;;;;;338.35;257.48;;;11.40;61.50;;;;;;5078589;28;20523;-75
2022/04/19 10:41:56;;;;;;;175.43;129.80;;;11.30;61.70;;;;;;5074134;28;20370;-75
2022/04/19 10:44:29;;;;;;;13.80;8.07;;;11.30;63.30;;;;;;5077745;28;20401;-76
2022/04/19 10:47:13;;;;;;;6.78;3.65;;;11.40;63.50;;;;;;5081786;28;20111;-74
2022/04/19 10:49:57;;;;;;;20.30;3.95;;;11.50;61.40;;;;;;5083450;28;20180;-71
2022/04/19 10:52:38;;;;;;;3.90;3.08;;;11.40;63.70;;;;;;5078693;28;20095;-70
2022/04/19 10:55:08;;;;;;;8.95;5.55;;;11.40;61.30;;;;;;5080323;28;20107;-71
2022/04/19 11:00:31;;;;;;;2.85;2.63;;;11.40;60.50;;;;;;5083283;28;20508;-71
2022/04/19 11:03:18;;;;;;;39.50;22.65;;;11.40;61.20;;;;;;5077051;28;20533;-71
2022/04/19 11:05:50;;;;;;;57.45;29.63;;;11.30;60.30;;;;;;5065361;28;20139;-69
2022/04/19 11:08:25;;;;;;;3.25;2.88;;;11.30;61.30;;;;;;5068940;28;20104;-70
2022/04/19 11:10:51;;;;;;;15.10;8.15;;;11.10;62.80;;;;;;5071837;28;20052;-71
2022/04/19 11:13:20;;;;;;;18.40;11.18;;;11.00;64.80;;;;;;5078216;28;20039;-71
2022/04/19 11:15:59;;;;;;;14.52;3.45;;;11.20;66.20;;;;;;5073491;28;20037;-73
2022/04/19 11:18:26;;;;;;;19.42;9.50;;;11.30;61.50;;;;;;5075314;28;20505;-75
2022/04/19 11:20:53;;;;;;;3.38;2.90;;;11.30;62.10;;;;;;5075522;28;20044;-71
2022/04/19 11:23:21;;;;;;;7.63;3.20;;;11.30;64.20;;;;;;5074186;28;20040;-69
2022/04/19 11:25:48;;;;;;;9.45;2.85;;;11.10;64.90;;;;;;5072819;28;20539;-70
2022/04/19 11:28:17;;;;;;;2.67;2.47;;;10.90;65.10;;;;;;5076841;28;20388;-66
2022/04/19 11:31:03;;;;;;;4.32;2.05;;;10.80;66.30;;;;;;5078792;28;20043;-66
2022/04/19 11:33:34;;;;;;;3.03;2.65;;;10.70;67.20;;;;;;5054984;28;20093;-66
2022/04/19 11:36:05;;;;;;;9.43;3.50;;;10.90;67.70;;;;;;5072162;28;20570;-66
2022/04/19 11:38:33;;;;;;;4.50;3.03;;;11.00;68.60;;;;;;5067919;28;20086;-66
2022/04/19 11:46:46;;;;;;;3.25;2.95;;;10.40;73.00;;;;;;5076142;28;20060;-66
2022/04/19 11:49:25;;;;;;;3.92;2.80;;;10.20;73.90;;;;;;5068669;28;20051;-66
2022/04/19 11:51:59;;;;;;;3.75;2.63;;;10.10;75.70;;;;;;5080958;28;20137;-66
2022/04/19 11:54:26;;;;;;;4.93;3.97;;;10.10;73.60;;;;;;5072235;28;20344;-66
2022/04/19 11:56:55;;;;;;;3.95;3.05;;;10.30;74.80;;;;;;5075045;28;20051;-66
2022/04/19 11:59:31;;;;;;;3.38;2.90;;;10.40;74.80;;;;;;5074417;28;20045;-66
2022/04/19 12:01:58;;;;;;;5.18;2.65;;;10.40;74.40;;;;;;5076527;28;20039;-66
2022/04/19 12:04:25;;;;;;;5.53;4.00;;;10.30;76.40;;;;;;5064742;28;20042;-66
2022/04/19 12:07:01;;;;;;;5.43;3.47;;;10.20;77.00;;;;;;5074831;28;20345;-66
2022/04/19 12:09:28;;;;;;;5.13;3.75;;;10.20;78.90;;;;;;5069916;28;20509;-66
2022/04/19 12:11:55;;;;;;;2.85;2.55;;;10.20;76.60;;;;;;5070510;28;20036;-66
2022/04/19 12:14:25;;;;;;;4.05;3.25;;;10.30;72.40;;;;;;5075149;28;20707;-69
2022/04/19 12:16:59;;;;;;;14.82;9.98;;;10.20;73.40;;;;;;5072834;28;20031;-70
2022/04/19 12:19:33;;;;;;;6.93;3.28;;;10.10;74.80;;;;;;5068878;28;20052;-69
2022/04/19 12:22:00;;;;;;;3.92;2.80;;;10.20;75.60;;;;;;5078309;28;20034;-69
2022/04/19 12:24:31;;;;;;;3.85;3.40;;;10.10;73.60;;;;;;5074448;28;20097;-70
2022/04/19 12:27:03;;;;;;;4.53;2.50;;;9.90;74.40;;;;;;5075682;28;20711;-70
2022/04/19 12:29:29;;;;;;;;;;;9.70;74.20;;;;;;5074809;28;20147;-65
2022/04/19 12:32:03;;;;;;;5.22;2.85;;;9.70;74.80;;;;;;5075418;28;20493;-65
2022/04/19 12:34:37;;;;;;;2.70;2.38;;;9.90;73.10;;;;;;5061294;28;20045;-68
2022/04/19 12:37:12;;;;;;;5.68;4.28;;;9.90;71.50;;;;;;5057383;28;20051;-68
2022/04/19 12:39:39;;;;;;;3.92;2.50;;;10.00;71.40;;;;;;5073593;28;20048;-67
2022/04/19 12:42:07;;;;;;;2.30;2.10;;;10.10;70.10;;;;;;5071459;28;20562;-68
2022/04/19 12:44:35;;;;;;;9.85;3.10;;;10.10;72.20;;;;;;5074581;28;20035;-67
2022/04/19 12:47:08;;;;;;;16.10;4.72;;;10.00;74.80;;;;;;5065073;28;20139;-68
2022/04/19 12:49:45;;;;;;;8.07;3.60;;;9.90;77.10;;;;;;5072623;28;20032;-68
2022/04/19 12:52:11;;;;;;;5.10;4.63;;;9.90;76.00;;;;;;5066971;28;20079;-68
2022/04/19 12:54:42;;;;;;;14.02;12.52;;;9.90;76.10;;;;;;5067310;28;20040;-69
2022/04/19 12:57:18;;;;;;;14.18;12.10;;;10.00;76.80;;;;;;5066518;28;20036;-69
2022/04/19 12:59:44;;;;;;;5.90;3.65;;;10.00;76.20;;;;;;5071090;28;20058;-68
2022/04/19 13:02:13;;;;;;;4.70;3.17;;;10.00;81.30;;;;;;5069894;28;20040;-68
2022/04/19 13:04:40;;;;;;;6.88;3.45;;;9.90;82.90;;;;;;5067369;28;20037;-71
2022/04/19 13:12:34;;;;;;;4.20;3.17;;;9.70;84.80;;;;;;5071371;28;20080;-69
2022/04/19 13:15:01;;;;;;;6.30;3.33;;;9.50;86.90;;;;;;5052452;28;20032;-66
2022/04/19 13:17:30;;;;;;;4.50;3.45;;;9.30;90.00;;;;;;5077895;28;20131;-65
2022/04/19 13:19:56;;;;;;;2.97;2.70;;;9.10;89.00;;;;;;5072346;28;20143;-68
2022/04/19 13:22:22;;;;;;;4.13;3.15;;;9.00;89.60;;;;;;5083740;28;20128;-67
2022/04/19 13:24:50;;;;;;;3.45;3.05;;;9.00;90.50;;;;;;5067702;28;20536;-69
2022/04/19 13:27:16;;;;;;;4.40;3.38;;;9.00;90.60;;;;;;5076357;28;20039;-67
2022/04/19 13:29:42;;;;;;;5.32;3.40;;;8.80;90.60;;;;;;5078377;28;20189;-67
2022/04/19 13:32:09;;;;;;;3.50;3.20;;;8.80;91.20;;;;;;5072814;28;20040;-67
2022/04/19 13:34:35;;;;;;;3.58;3.22;;;8.80;91.60;;;;;;5067870;28;20044;-68
2022/04/19 13:37:02;;;;;;;3.50;3.20;;;8.60;91.70;;;;;;5068967;28;20036;-68
2022/04/19 13:39:28;;;;;;;5.78;3.03;;;8.50;91.80;;;;;;5072894;28;20493;-67
2022/04/19 13:41:54;;;;;;;4.25;2.90;;;8.60;92.30;;;;;;5076555;28;20044;-67
2022/04/19 13:44:20;;;;;;;6.47;3.40;;;8.70;92.60;;;;;;5070143;28;20444;-68
2022/04/19 13:46:46;;;;;;;3.42;3.13;;;8.70;92.40;;;;;;5072784;28;20024;-69